Time;durP1;ratioP1;P1;durP2;ratioP2;P2;SDS_P1;SDS_P2;PMS_P1;PMS_P2;Temp;Humidity;BMP_temperature;BMP_pressure;BME280_temperature;BME280_humidity;BME280_pressure;Samples;Min_cycle;Max_cycle;Signal;HPM_P1;HPM_P2
2024/01/06 00:01:40;;;;;;;18.97;16.07;;;2.80;99.90;;;;;;5092878;28;20044;-78
2024/01/06 00:04:06;;;;;;;19.17;15.90;;;2.90;99.90;;;;;;5093402;28;20101;-78
2024/01/06 00:06:32;;;;;;;17.73;15.00;;;2.90;99.90;;;;;;5092759;28;20044;-77
2024/01/06 00:08:58;;;;;;;16.73;14.83;;;2.90;99.90;;;;;;5091919;28;20044;-77
2024/01/06 00:11:24;;;;;;;17.17;14.93;;;2.90;99.90;;;;;;5092783;28;20127;-77
2024/01/06 00:13:49;;;;;;;16.93;14.20;;;2.80;99.90;;;;;;5091901;28;20040;-78
2024/01/06 00:16:19;;;;;;;17.23;14.40;;;2.80;99.90;;;;;;5094238;28;20044;-78
2024/01/06 00:18:46;;;;;;;16.67;12.73;;;2.80;99.90;;;;;;5096813;28;20501;-79
2024/01/06 00:21:11;;;;;;;14.82;13.15;;;2.80;99.90;;;;;;5096930;28;20083;-78
2024/01/06 00:23:37;;;;;;;17.10;13.77;;;2.80;99.90;;;;;;5095945;28;20083;-77
2024/01/06 00:26:03;;;;;;;13.90;12.10;;;2.80;99.90;;;;;;5097106;28;20043;-77
2024/01/06 00:28:29;;;;;;;14.75;12.50;;;2.80;99.90;;;;;;5096845;28;20131;-77
2024/01/06 00:30:55;;;;;;;17.67;13.68;;;2.80;99.90;;;;;;5096876;28;20119;-77
2024/01/06 00:33:21;;;;;;;21.27;14.93;;;2.80;99.90;;;;;;5075294;28;20136;-78
2024/01/06 00:35:47;;;;;;;18.00;13.97;;;2.80;99.90;;;;;;5072991;28;20048;-77
2024/01/06 00:38:13;;;;;;;19.23;15.90;;;2.70;99.90;;;;;;5084408;28;20527;-78
2024/01/06 00:40:38;;;;;;;19.57;16.70;;;2.80;99.90;;;;;;5094425;28;20044;-78
2024/01/06 00:43:04;;;;;;;19.37;15.80;;;2.80;99.90;;;;;;5094028;28;20643;-78
2024/01/06 00:45:31;;;;;;;19.20;16.33;;;2.70;99.90;;;;;;5094253;28;20044;-78
2024/01/06 00:47:57;;;;;;;23.98;17.98;;;2.80;99.90;;;;;;5094332;28;20365;-78
2024/01/06 00:50:23;;;;;;;21.63;15.93;;;2.80;99.90;;;;;;5094267;28;20180;-78
2024/01/06 00:52:52;;;;;;;21.15;15.98;;;2.70;99.90;;;;;;5095455;28;20363;-78
2024/01/06 00:55:21;;;;;;;20.75;15.80;;;2.70;99.90;;;;;;5096576;28;20059;-78
2024/01/06 00:57:47;;;;;;;19.40;15.02;;;2.80;99.90;;;;;;5095218;28;20047;-78
2024/01/06 01:00:13;;;;;;;18.10;14.30;;;2.70;99.90;;;;;;5096539;28;20040;-78
2024/01/06 01:02:39;;;;;;;19.37;13.87;;;2.70;99.90;;;;;;5096074;28;20071;-77
2024/01/06 01:05:07;;;;;;;17.80;14.37;;;2.70;99.90;;;;;;5096173;28;20040;-77
2024/01/06 01:07:33;;;;;;;18.83;13.85;;;2.60;99.90;;;;;;5095872;28;20497;-77
2024/01/06 01:09:59;;;;;;;19.80;14.23;;;2.60;99.90;;;;;;5096377;28;20097;-78
2024/01/06 01:12:24;;;;;;;21.17;15.20;;;2.60;99.90;;;;;;5096141;28;20277;-77
2024/01/06 01:14:51;;;;;;;22.10;15.77;;;2.50;99.90;;;;;;5095845;28;20056;-77
2024/01/06 01:17:16;;;;;;;19.17;15.10;;;2.50;99.90;;;;;;5095988;28;20052;-78
2024/01/06 01:19:42;;;;;;;24.50;16.27;;;2.60;99.90;;;;;;5095615;28;20557;-77
2024/01/06 01:22:08;;;;;;;23.73;16.03;;;2.60;99.90;;;;;;5078290;28;20385;-78
2024/01/06 01:24:34;;;;;;;22.67;16.27;;;2.50;99.90;;;;;;5094809;28;20056;-77
2024/01/06 01:27:00;;;;;;;21.67;15.15;;;2.50;99.90;;;;;;5095770;28;20405;-78
2024/01/06 01:29:25;;;;;;;20.93;14.63;;;2.50;99.90;;;;;;5094701;28;20059;-78
2024/01/06 01:31:51;;;;;;;25.30;15.57;;;2.50;99.90;;;;;;5095456;28;20052;-78
2024/01/06 01:34:17;;;;;;;17.80;12.03;;;2.50;99.90;;;;;;5094573;28;20128;-79
2024/01/06 01:36:43;;;;;;;16.77;12.20;;;2.50;99.90;;;;;;5095559;28;20047;-78
2024/01/06 01:39:09;;;;;;;19.23;14.20;;;2.40;99.90;;;;;;5095467;28;20389;-79
2024/01/06 01:41:35;;;;;;;18.50;14.07;;;2.40;99.90;;;;;;5095447;28;20040;-79
2024/01/06 01:44:01;;;;;;;18.90;14.80;;;2.40;99.90;;;;;;5095465;28;20078;-79
2024/01/06 01:46:28;;;;;;;20.25;14.45;;;2.40;99.90;;;;;;5094568;28;20146;-78
2024/01/06 01:48:55;;;;;;;16.15;12.75;;;2.40;99.90;;;;;;5094215;28;20058;-78
2024/01/06 01:51:21;;;;;;;18.63;13.35;;;2.30;99.90;;;;;;5095451;28;20040;-79
2024/01/06 01:53:47;;;;;;;21.83;13.27;;;2.30;99.90;;;;;;5094332;28;20067;-78
2024/01/06 01:56:13;;;;;;;17.23;12.90;;;2.40;99.90;;;;;;5094437;28;20562;-78
2024/01/06 01:58:40;;;;;;;17.55;12.90;;;2.40;99.90;;;;;;5094969;28;20052;-79
2024/01/06 02:01:07;;;;;;;21.20;13.40;;;2.40;99.90;;;;;;5095118;28;20044;-78
2024/01/06 02:03:34;;;;;;;17.67;12.57;;;2.40;99.90;;;;;;5094972;28;20052;-78
2024/01/06 02:06:00;;;;;;;16.23;12.57;;;2.30;99.90;;;;;;5094947;28;20044;-78
2024/01/06 02:08:26;;;;;;;19.47;12.80;;;2.30;99.90;;;;;;5094036;28;20047;-79
2024/01/06 02:10:56;;;;;;;19.40;12.98;;;2.30;99.90;;;;;;5094748;28;20036;-78
2024/01/06 02:13:22;;;;;;;19.52;12.52;;;2.30;99.90;;;;;;5095255;28;20039;-78
2024/01/06 02:15:48;;;;;;;19.08;12.88;;;2.30;99.90;;;;;;5094652;28;20417;-78
2024/01/06 02:18:13;;;;;;;17.33;12.63;;;2.30;99.90;;;;;;5093715;28;20060;-78
2024/01/06 02:20:43;;;;;;;13.50;10.50;;;2.30;99.90;;;;;;5094740;28;20044;-77
2024/01/06 02:23:08;;;;;;;18.73;11.98;;;2.30;99.90;;;;;;5094842;28;20052;-78
2024/01/06 02:25:35;;;;;;;12.10;8.77;;;2.30;99.90;;;;;;5093996;28;20058;-79
2024/01/06 02:28:01;;;;;;;13.13;9.93;;;2.30;99.90;;;;;;5094425;28;20058;-78
2024/01/06 02:30:26;;;;;;;13.73;10.23;;;2.40;99.90;;;;;;5094431;28;20486;-78
2024/01/06 02:32:52;;;;;;;14.10;10.60;;;2.30;99.90;;;;;;5093525;28;20122;-78
2024/01/06 02:35:18;;;;;;;13.00;8.80;;;2.30;99.90;;;;;;5094457;28;20548;-78
2024/01/06 02:37:44;;;;;;;14.67;10.63;;;2.40;99.90;;;;;;5092534;28;20127;-77
2024/01/06 02:40:10;;;;;;;17.10;11.23;;;2.30;99.90;;;;;;5091725;28;20365;-78
2024/01/06 02:42:36;;;;;;;15.32;11.63;;;2.30;99.90;;;;;;5091960;28;20060;-78
2024/01/06 02:45:02;;;;;;;14.60;10.63;;;2.20;99.90;;;;;;5091876;28;20048;-78
2024/01/06 02:47:28;;;;;;;16.97;12.37;;;2.20;99.90;;;;;;5092273;28;20138;-78
2024/01/06 02:49:54;;;;;;;14.63;12.00;;;2.20;99.90;;;;;;5091187;28;20040;-78
2024/01/06 02:52:19;;;;;;;17.67;12.13;;;2.30;99.90;;;;;;5093433;28;20055;-78
2024/01/06 02:54:45;;;;;;;17.27;11.63;;;2.30;99.90;;;;;;5093896;28;20044;-78
2024/01/06 02:57:13;;;;;;;16.07;11.93;;;2.30;99.90;;;;;;5076220;28;20100;-78
2024/01/06 02:59:39;;;;;;;17.35;11.73;;;2.30;99.90;;;;;;5093964;28;20091;-78
2024/01/06 03:02:04;;;;;;;17.63;12.70;;;2.20;99.90;;;;;;5093983;28;20079;-79
2024/01/06 03:04:30;;;;;;;15.13;12.30;;;2.30;99.90;;;;;;5094245;28;20555;-79
2024/01/06 03:06:56;;;;;;;15.80;11.77;;;2.40;99.90;;;;;;5092848;28;20590;-78
2024/01/06 03:09:22;;;;;;;15.27;11.57;;;2.40;99.90;;;;;;5093858;28;20409;-78
2024/01/06 03:11:47;;;;;;;16.70;12.30;;;2.40;99.90;;;;;;5092532;28;20137;-78
2024/01/06 03:14:13;;;;;;;15.53;12.13;;;2.30;99.90;;;;;;5093703;28;20181;-78
2024/01/06 03:16:39;;;;;;;17.67;11.37;;;2.40;99.90;;;;;;5093613;28;20113;-78
2024/01/06 03:19:05;;;;;;;15.57;12.90;;;2.40;99.90;;;;;;5093635;28;20286;-79
2024/01/06 03:21:30;;;;;;;16.23;12.60;;;2.40;99.90;;;;;;5093663;28;20047;-78
2024/01/06 03:23:56;;;;;;;16.27;13.07;;;2.40;99.90;;;;;;5075694;28;20508;-78
2024/01/06 03:26:22;;;;;;;16.23;12.33;;;2.30;99.90;;;;;;5093514;28;20040;-79
2024/01/06 03:28:50;;;;;;;17.73;13.10;;;2.30;99.90;;;;;;5075421;28;20047;-78
2024/01/06 03:31:16;;;;;;;17.35;12.77;;;2.30;99.90;;;;;;5093535;28;20083;-79
2024/01/06 03:33:45;;;;;;;14.63;10.87;;;2.30;99.90;;;;;;5092533;28;20083;-79
2024/01/06 03:36:13;;;;;;;15.25;11.77;;;2.30;99.90;;;;;;5092446;28;20359;-79
2024/01/06 03:38:39;;;;;;;16.50;12.07;;;2.40;99.90;;;;;;5093698;28;20044;-79
2024/01/06 03:41:04;;;;;;;17.63;12.80;;;2.40;99.90;;;;;;5092008;28;20470;-79
2024/01/06 03:43:30;;;;;;;15.37;11.20;;;2.30;99.90;;;;;;5093221;28;20064;-79
2024/01/06 03:45:57;;;;;;;16.53;12.63;;;2.30;99.90;;;;;;5093287;28;20058;-79
2024/01/06 03:48:23;;;;;;;21.92;13.68;;;2.40;99.90;;;;;;5076049;28;20036;-78
2024/01/06 03:50:49;;;;;;;18.77;13.47;;;2.30;99.90;;;;;;5092383;28;20097;-78
2024/01/06 03:53:14;;;;;;;17.90;12.63;;;2.30;99.90;;;;;;5093462;28;20413;-78
2024/01/06 03:55:40;;;;;;;17.07;12.60;;;2.30;99.90;;;;;;5093103;28;20405;-79
2024/01/06 03:58:06;;;;;;;18.13;12.77;;;2.30;99.90;;;;;;5093000;28;20054;-79
2024/01/06 04:00:31;;;;;;;15.57;12.27;;;2.30;99.90;;;;;;5092627;28;20552;-78
2024/01/06 04:02:57;;;;;;;16.23;11.77;;;2.30;99.90;;;;;;5093081;28;20044;-78
2024/01/06 04:05:23;;;;;;;14.07;9.67;;;2.20;99.90;;;;;;5093180;28;20048;-79
2024/01/06 04:07:49;;;;;;;16.37;10.03;;;2.30;99.90;;;;;;5075562;28;20397;-78
2024/01/06 04:10:14;;;;;;;11.30;8.47;;;2.30;99.90;;;;;;5092831;28;20040;-78
2024/01/06 04:12:40;;;;;;;15.80;9.83;;;2.30;99.90;;;;;;5092904;28;20493;-78
2024/01/06 04:15:06;;;;;;;13.30;9.80;;;2.40;99.90;;;;;;5092976;28;20043;-78
2024/01/06 04:17:32;;;;;;;13.38;9.60;;;2.30;99.90;;;;;;5092295;28;20170;-78
2024/01/06 04:19:57;;;;;;;14.50;10.13;;;2.40;99.90;;;;;;5092813;28;20177;-78
2024/01/06 04:22:24;;;;;;;16.93;10.27;;;2.30;99.90;;;;;;5091866;28;20116;-78
2024/01/06 04:24:50;;;;;;;16.77;10.30;;;2.30;99.90;;;;;;5093145;28;20044;-79
2024/01/06 04:27:16;;;;;;;16.43;10.73;;;2.30;99.90;;;;;;5092539;28;20488;-78
2024/01/06 04:29:41;;;;;;;15.87;9.70;;;2.30;99.90;;;;;;5092127;28;20051;-78
2024/01/06 04:32:07;;;;;;;15.40;10.27;;;2.30;99.90;;;;;;5092766;28;20113;-78
2024/01/06 04:34:33;;;;;;;14.57;10.43;;;2.30;99.90;;;;;;5092910;28;20127;-78
2024/01/06 04:36:59;;;;;;;17.13;10.90;;;2.30;99.90;;;;;;5092534;28;20040;-79
2024/01/06 04:39:24;;;;;;;15.20;9.57;;;2.30;99.90;;;;;;5092892;28;20412;-79
2024/01/06 04:41:50;;;;;;;17.93;10.83;;;2.40;99.90;;;;;;5091588;28;20584;-78
2024/01/06 04:44:17;;;;;;;17.13;10.17;;;2.40;99.90;;;;;;5092765;28;20070;-78
2024/01/06 04:46:43;;;;;;;15.30;10.35;;;2.30;99.90;;;;;;5092611;28;20435;-78
2024/01/06 04:49:08;;;;;;;12.40;10.00;;;2.30;99.90;;;;;;5092838;28;20055;-78
2024/01/06 04:51:34;;;;;;;14.60;9.37;;;2.40;99.90;;;;;;5092596;28;20040;-80
2024/01/06 04:54:00;;;;;;;13.10;9.50;;;2.30;99.90;;;;;;5092552;28;20132;-78
2024/01/06 04:56:25;;;;;;;16.30;9.57;;;2.40;99.90;;;;;;5092532;28;20495;-79
2024/01/06 04:58:51;;;;;;;18.80;10.60;;;2.40;99.90;;;;;;5092749;28;20083;-79
2024/01/06 05:01:17;;;;;;;15.40;9.47;;;2.40;99.90;;;;;;5092496;28;20040;-79
2024/01/06 05:03:42;;;;;;;15.73;10.50;;;2.30;99.90;;;;;;5096067;28;20052;-79
2024/01/06 05:06:08;;;;;;;15.97;11.03;;;2.40;99.90;;;;;;5095913;28;20044;-78
2024/01/06 05:08:36;;;;;;;14.37;10.07;;;2.30;99.90;;;;;;5095086;28;20486;-79
2024/01/06 05:11:02;;;;;;;21.00;11.98;;;2.30;99.90;;;;;;5095727;28;20044;-78
2024/01/06 05:13:27;;;;;;;15.47;11.00;;;2.30;99.90;;;;;;5094929;28;20181;-79
2024/01/06 05:15:53;;;;;;;14.77;10.73;;;2.40;99.90;;;;;;5095304;28;20048;-79
2024/01/06 05:18:19;;;;;;;15.50;10.63;;;2.40;99.90;;;;;;5094722;28;20048;-79
2024/01/06 05:20:44;;;;;;;15.43;11.47;;;2.30;99.90;;;;;;5096090;28;20448;-79
2024/01/06 05:23:10;;;;;;;16.00;10.73;;;2.40;99.90;;;;;;5095683;28;20502;-79
2024/01/06 05:25:36;;;;;;;14.90;10.10;;;2.30;99.90;;;;;;5095824;28;20109;-79
2024/01/06 05:28:01;;;;;;;16.07;10.97;;;2.40;99.90;;;;;;5094640;28;20127;-78
2024/01/06 05:30:27;;;;;;;14.03;10.00;;;2.30;99.90;;;;;;5095813;28;20512;-79
2024/01/06 05:32:53;;;;;;;17.30;11.63;;;2.40;99.90;;;;;;5094623;28;20048;-79
2024/01/06 05:35:19;;;;;;;16.75;10.55;;;2.30;99.90;;;;;;5094567;28;20083;-79
2024/01/06 05:37:45;;;;;;;16.17;9.77;;;2.30;99.90;;;;;;5095703;28;20513;-79
2024/01/06 05:40:11;;;;;;;17.00;10.53;;;2.40;99.90;;;;;;5095308;28;20048;-80
2024/01/06 05:42:37;;;;;;;15.13;10.50;;;2.30;99.90;;;;;;5077734;28;20413;-79
2024/01/06 05:45:03;;;;;;;15.07;9.90;;;2.40;99.90;;;;;;5095760;28;20089;-79
2024/01/06 05:47:28;;;;;;;15.67;10.70;;;2.30;99.90;;;;;;5094498;28;20409;-79
2024/01/06 05:49:54;;;;;;;14.93;11.53;;;2.40;99.90;;;;;;5095380;28;20393;-79
2024/01/06 05:52:20;;;;;;;13.90;9.77;;;2.30;99.90;;;;;;5095186;28;20087;-79
2024/01/06 05:54:45;;;;;;;14.20;10.77;;;2.40;99.90;;;;;;5095286;28;20044;-80
2024/01/06 05:57:11;;;;;;;17.03;11.33;;;2.40;99.90;;;;;;5094265;28;20044;-79
2024/01/06 05:59:37;;;;;;;18.40;10.37;;;2.40;99.90;;;;;;5095338;28;20109;-79
2024/01/06 06:02:03;;;;;;;19.10;11.70;;;2.40;99.90;;;;;;5095296;28;20131;-79
2024/01/06 06:04:29;;;;;;;16.42;10.40;;;2.40;99.90;;;;;;5095046;28;20066;-79
2024/01/06 06:06:54;;;;;;;15.17;9.83;;;2.30;99.90;;;;;;5095175;28;20560;-80
2024/01/06 06:09:21;;;;;;;14.60;10.70;;;2.40;99.90;;;;;;5094741;28;20052;-79
2024/01/06 06:11:48;;;;;;;18.30;11.18;;;2.30;99.90;;;;;;5094788;28;20070;-79
2024/01/06 06:14:13;;;;;;;13.95;9.52;;;2.30;99.90;;;;;;5094105;28;20044;-79
2024/01/06 06:16:39;;;;;;;13.93;9.70;;;2.50;99.90;;;;;;5094336;28;20139;-80
2024/01/06 06:19:06;;;;;;;13.23;9.03;;;2.40;99.90;;;;;;5094812;28;20447;-80
2024/01/06 06:21:32;;;;;;;16.13;10.30;;;2.50;99.90;;;;;;5094539;28;20519;-79
2024/01/06 06:23:57;;;;;;;16.73;10.30;;;2.40;99.90;;;;;;5094680;28;20123;-80
2024/01/06 06:26:23;;;;;;;16.20;10.47;;;2.40;99.90;;;;;;5094362;28;20628;-79
2024/01/06 06:28:49;;;;;;;16.20;11.50;;;2.40;99.90;;;;;;5094007;28;20040;-79
2024/01/06 06:31:14;;;;;;;16.03;10.27;;;2.40;99.90;;;;;;5093163;28;20051;-79
2024/01/06 06:33:40;;;;;;;14.70;10.43;;;2.50;99.90;;;;;;5094860;28;20056;-79
2024/01/06 06:36:06;;;;;;;17.43;10.97;;;2.40;99.90;;;;;;5094491;28;20040;-79
2024/01/06 06:38:32;;;;;;;18.43;11.00;;;2.50;99.90;;;;;;5094289;28;20044;-79
2024/01/06 06:40:57;;;;;;;16.47;11.20;;;2.40;99.90;;;;;;5093074;28;20549;-79
2024/01/06 06:43:23;;;;;;;14.37;10.47;;;2.50;99.90;;;;;;5094080;28;20566;-79
2024/01/06 06:45:49;;;;;;;19.20;12.07;;;2.50;99.90;;;;;;5094383;28;20055;-79
2024/01/06 06:48:14;;;;;;;18.37;12.93;;;2.50;99.90;;;;;;5094114;28;20093;-79
2024/01/06 06:50:41;;;;;;;17.87;11.87;;;2.40;99.90;;;;;;5092964;28;20094;-79
2024/01/06 06:53:08;;;;;;;19.40;11.93;;;2.50;99.90;;;;;;5094161;28;20044;-79
2024/01/06 06:55:34;;;;;;;16.08;11.15;;;2.40;99.90;;;;;;5094078;28;20044;-79
2024/01/06 06:57:59;;;;;;;18.30;11.43;;;2.40;99.90;;;;;;5094310;28;20044;-80
2024/01/06 07:00:25;;;;;;;19.47;12.13;;;2.50;99.90;;;;;;5094048;28;20044;-79
2024/01/06 07:02:51;;;;;;;18.67;12.43;;;2.40;99.90;;;;;;5094062;28;20485;-79
2024/01/06 07:05:17;;;;;;;20.10;11.77;;;2.30;99.90;;;;;;5092567;28;20047;-79
2024/01/06 07:07:46;;;;;;;19.40;12.60;;;2.40;99.90;;;;;;5092715;28;20083;-79
2024/01/06 07:10:12;;;;;;;20.92;12.38;;;2.40;99.90;;;;;;5093887;28;20294;-79
2024/01/06 07:12:38;;;;;;;20.85;13.80;;;2.40;99.90;;;;;;5093684;28;20505;-79
2024/01/06 07:15:04;;;;;;;18.70;13.27;;;2.40;99.90;;;;;;5093826;28;20048;-80
2024/01/06 07:17:30;;;;;;;18.10;12.10;;;2.40;99.90;;;;;;5093538;28;20048;-79
2024/01/06 07:19:56;;;;;;;21.23;12.63;;;2.40;99.90;;;;;;5093835;28;20043;-79
2024/01/06 07:22:22;;;;;;;18.47;13.00;;;2.50;99.90;;;;;;5093410;28;20185;-79
2024/01/06 07:24:47;;;;;;;18.35;12.30;;;2.40;99.90;;;;;;5093704;28;20095;-79
2024/01/06 07:27:13;;;;;;;17.73;12.33;;;2.50;99.90;;;;;;5092568;28;20140;-79
2024/01/06 07:29:39;;;;;;;23.27;13.23;;;2.50;99.90;;;;;;5092058;28;20113;-79
2024/01/06 07:32:06;;;;;;;22.10;14.13;;;2.50;99.90;;;;;;5092701;28;20071;-79
2024/01/06 07:34:32;;;;;;;20.10;12.88;;;2.50;99.90;;;;;;5093299;28;20052;-79
2024/01/06 07:36:58;;;;;;;21.98;13.48;;;2.50;99.90;;;;;;5092429;28;20047;-79
2024/01/06 07:39:24;;;;;;;21.13;13.52;;;2.50;99.90;;;;;;5093119;28;20406;-79
2024/01/06 07:41:50;;;;;;;19.20;13.17;;;2.50;99.90;;;;;;5075906;28;20040;-79
2024/01/06 07:44:22;;;;;;;20.83;13.38;;;2.50;99.90;;;;;;5093195;28;20056;-79
2024/01/06 07:46:48;;;;;;;17.25;12.23;;;2.50;99.90;;;;;;5093489;28;20044;-79
2024/01/06 07:49:14;;;;;;;21.90;15.83;;;2.60;99.90;;;;;;5093405;28;20402;-81
2024/01/06 07:51:39;;;;;;;22.87;13.63;;;2.50;99.90;;;;;;5093018;28;20297;-79
2024/01/06 07:54:06;;;;;;;16.53;11.93;;;2.50;99.90;;;;;;5093572;28;20130;-79
2024/01/06 07:56:32;;;;;;;17.67;12.00;;;2.50;99.90;;;;;;5092219;28;20066;-78
2024/01/06 07:58:57;;;;;;;22.13;11.33;;;2.50;99.90;;;;;;5093373;28;20490;-78
2024/01/06 08:01:23;;;;;;;18.63;12.30;;;2.50;99.90;;;;;;5092968;28;20493;-78
2024/01/06 08:03:49;;;;;;;17.03;11.57;;;2.60;99.90;;;;;;5075552;28;20044;-78
2024/01/06 08:06:14;;;;;;;18.60;12.37;;;2.50;99.90;;;;;;5092980;28;20448;-78
2024/01/06 08:08:41;;;;;;;19.33;11.60;;;2.60;99.90;;;;;;5093270;28;20483;-76
2024/01/06 08:11:07;;;;;;;16.43;10.40;;;2.60;99.90;;;;;;5093206;28;20075;-75
2024/01/06 08:13:32;;;;;;;16.33;11.50;;;2.60;99.90;;;;;;5093131;28;20131;-75
2024/01/06 08:15:59;;;;;;;18.43;10.83;;;2.60;99.90;;;;;;5093140;28;20044;-76
2024/01/06 08:18:24;;;;;;;17.95;11.65;;;2.70;99.90;;;;;;5092803;28;20055;-76
2024/01/06 08:20:50;;;;;;;18.27;12.40;;;2.70;99.90;;;;;;5092892;28;20052;-76
2024/01/06 08:23:18;;;;;;;15.20;10.00;;;2.70;99.90;;;;;;5093220;28;20144;-76
2024/01/06 08:25:45;;;;;;;15.45;10.25;;;2.70;99.90;;;;;;5092877;28;20048;-76
2024/01/06 08:28:12;;;;;;;15.43;10.65;;;2.70;99.90;;;;;;5091870;28;20059;-76
2024/01/06 08:30:37;;;;;;;20.35;10.77;;;2.80;99.90;;;;;;5092673;28;20044;-76
2024/01/06 08:33:03;;;;;;;12.80;9.17;;;2.70;99.90;;;;;;5091818;28;20496;-76
2024/01/06 08:35:30;;;;;;;16.45;10.60;;;2.60;99.90;;;;;;5091296;28;20040;-76
2024/01/06 08:37:55;;;;;;;14.38;10.27;;;2.70;99.90;;;;;;5095199;28;20052;-76
2024/01/06 08:40:21;;;;;;;18.23;10.27;;;2.60;99.90;;;;;;5097108;28;20169;-76
2024/01/06 08:42:47;;;;;;;19.47;10.93;;;2.70;99.90;;;;;;5095500;28;20134;-76
2024/01/06 08:45:13;;;;;;;17.33;10.57;;;2.70;99.90;;;;;;5096973;28;20386;-76
2024/01/06 08:47:38;;;;;;;18.97;11.33;;;2.70;99.90;;;;;;5096481;28;20097;-76
2024/01/06 08:50:04;;;;;;;15.10;11.80;;;2.70;99.90;;;;;;5095179;28;20044;-76
2024/01/06 08:52:30;;;;;;;13.98;9.93;;;2.70;99.90;;;;;;5096236;28;20444;-79
2024/01/06 08:54:56;;;;;;;20.60;12.67;;;2.60;99.90;;;;;;5096809;28;20044;-76
2024/01/06 08:57:22;;;;;;;19.47;12.10;;;2.70;99.90;;;;;;5095551;28;20487;-77
2024/01/06 08:59:47;;;;;;;17.17;10.60;;;2.70;99.90;;;;;;5096162;28;20090;-77
2024/01/06 09:02:13;;;;;;;14.77;11.27;;;2.70;99.90;;;;;;5096373;28;20135;-77
2024/01/06 09:04:39;;;;;;;19.30;11.17;;;2.70;99.90;;;;;;5095874;28;20044;-76
2024/01/06 09:07:05;;;;;;;17.67;11.87;;;2.70;99.90;;;;;;5096364;28;20055;-79
2024/01/06 09:09:30;;;;;;;14.73;11.10;;;2.70;99.90;;;;;;5096117;28;20047;-76
2024/01/06 09:11:56;;;;;;;19.40;12.53;;;2.70;99.90;;;;;;5096124;28;20048;-76
2024/01/06 09:14:22;;;;;;;18.63;12.47;;;2.70;99.90;;;;;;5095422;28;20044;-76
2024/01/06 09:16:48;;;;;;;18.47;11.67;;;2.70;99.90;;;;;;5095844;28;20051;-77
2024/01/06 09:19:13;;;;;;;19.03;12.10;;;2.70;99.90;;;;;;5078000;28;20051;-78
2024/01/06 09:21:39;;;;;;;17.20;12.43;;;2.70;99.90;;;;;;5095759;28;20044;-78
2024/01/06 09:24:06;;;;;;;17.60;12.47;;;2.70;99.90;;;;;;5095954;28;20048;-78
2024/01/06 09:26:35;;;;;;;19.55;11.15;;;2.70;99.90;;;;;;5094719;28;20507;-81
2024/01/06 09:29:02;;;;;;;17.35;11.30;;;2.80;99.90;;;;;;5095779;28;20515;-78
2024/01/06 09:31:29;;;;;;;16.10;11.35;;;2.80;99.90;;;;;;5095751;28;20091;-78
2024/01/06 09:33:55;;;;;;;19.30;12.65;;;2.80;99.90;;;;;;5094254;28;20052;-78
2024/01/06 09:36:20;;;;;;;19.67;12.63;;;2.70;99.90;;;;;;5095888;28;20055;-78
2024/01/06 09:38:46;;;;;;;19.03;12.80;;;2.80;99.90;;;;;;5095280;28;20036;-77
2024/01/06 09:41:12;;;;;;;17.60;11.33;;;2.80;99.90;;;;;;5095374;28;20432;-78
2024/01/06 09:43:38;;;;;;;17.07;10.70;;;2.80;99.90;;;;;;5077206;28;20105;-78
2024/01/06 09:46:31;;;;;;;19.65;12.55;;;2.90;99.90;;;;;;5095438;28;20052;-78
2024/01/06 09:48:58;;;;;;;18.10;11.55;;;2.80;99.90;;;;;;5085439;28;20055;-78
2024/01/06 09:51:24;;;;;;;24.80;16.33;;;2.80;99.90;;;;;;5095403;28;20040;-77
2024/01/06 09:54:00;;;;;;;23.13;13.63;;;2.80;99.90;;;;;;5095108;28;20502;-79
2024/01/06 09:56:28;;;;;;;19.00;12.82;;;2.80;99.90;;;;;;5095330;28;20122;-77
2024/01/06 09:58:54;;;;;;;20.52;12.77;;;2.80;99.90;;;;;;5094820;28;20059;-76
2024/01/06 10:01:20;;;;;;;17.63;11.32;;;2.80;99.90;;;;;;5095296;28;20128;-78
2024/01/06 10:03:46;;;;;;;19.30;12.63;;;2.80;99.90;;;;;;5095072;28;20040;-77
2024/01/06 10:06:15;;;;;;;16.45;11.05;;;2.80;99.90;;;;;;5095457;28;20082;-79
2024/01/06 10:08:48;;;;;;;15.75;11.90;;;2.80;99.90;;;;;;5094911;28;20047;-78
2024/01/06 10:11:14;;;;;;;18.15;12.25;;;2.90;99.90;;;;;;5094922;28;20485;-79
2024/01/06 10:13:40;;;;;;;16.60;12.00;;;2.90;99.90;;;;;;5094712;28;20159;-79
2024/01/06 10:16:06;;;;;;;16.10;12.10;;;2.90;99.90;;;;;;5077527;28;20559;-79
2024/01/06 10:18:34;;;;;;;16.50;12.50;;;2.90;99.90;;;;;;5094267;28;20080;-78
2024/01/06 10:21:04;;;;;;;16.85;12.45;;;2.90;99.90;;;;;;5093478;28;20051;-77
2024/01/06 10:23:32;;;;;;;20.33;13.15;;;2.90;99.90;;;;;;5094688;28;20557;-76
2024/01/06 10:25:58;;;;;;;16.23;12.00;;;2.80;99.90;;;;;;5088818;28;20051;-77
2024/01/06 10:28:24;;;;;;;23.63;13.10;;;2.90;99.90;;;;;;5095085;28;20040;-78
2024/01/06 10:30:54;;;;;;;17.20;10.70;;;2.90;99.90;;;;;;5101107;28;20293;-78
2024/01/06 10:33:23;;;;;;;18.15;13.07;;;3.00;99.90;;;;;;5115060;28;20047;-78
2024/01/06 10:35:49;;;;;;;23.17;12.85;;;2.90;99.90;;;;;;5089486;28;20048;-78
2024/01/06 10:38:15;;;;;;;18.67;12.25;;;3.00;99.90;;;;;;5100945;28;20043;-79
2024/01/06 10:41:06;;;;;;;19.75;13.60;;;2.90;99.90;;;;;;5097222;28;20047;-79
2024/01/06 10:43:36;;;;;;;18.00;12.02;;;2.90;99.90;;;;;;5093534;28;20105;-79
2024/01/06 10:46:09;;;;;;;15.40;11.07;;;2.90;99.90;;;;;;5079016;28;20075;-77
2024/01/06 10:48:38;;;;;;;17.38;11.93;;;2.90;99.90;;;;;;5093839;28;20044;-75
2024/01/06 10:51:07;;;;;;;18.73;13.00;;;2.90;99.90;;;;;;5091114;28;20394;-86
2024/01/06 10:53:37;;;;;;;22.63;12.70;;;2.90;99.90;;;;;;5087844;28;20123;-81
2024/01/06 10:56:03;;;;;;;19.00;12.75;;;2.80;99.90;;;;;;5092921;28;20040;-80
2024/01/06 10:58:32;;;;;;;16.65;12.00;;;2.80;99.90;;;;;;5094466;28;20094;-80
2024/01/06 11:00:58;;;;;;;18.75;12.43;;;2.90;99.90;;;;;;5093468;28;20134;-79
2024/01/06 11:03:25;;;;;;;18.33;11.70;;;2.90;99.90;;;;;;5093799;28;20457;-83
2024/01/06 11:05:50;;;;;;;17.13;11.50;;;2.80;99.90;;;;;;5093940;28;20145;-83
2024/01/06 11:08:21;;;;;;;16.30;10.83;;;3.00;99.90;;;;;;5094091;28;20088;-82
2024/01/06 11:10:48;;;;;;;15.93;12.02;;;3.00;99.90;;;;;;5099226;28;20400;-81
2024/01/06 11:13:22;;;;;;;15.95;10.95;;;2.90;99.90;;;;;;5110245;28;20043;-83
2024/01/06 11:15:52;;;;;;;15.93;10.73;;;2.90;99.90;;;;;;5114215;28;20130;-83
2024/01/06 11:18:40;;;;;;;17.52;10.90;;;2.90;99.90;;;;;;5114091;28;20054;-79
2024/01/06 11:21:30;;;;;;;13.05;9.60;;;2.90;99.90;;;;;;5098057;28;20083;-85
2024/01/06 11:24:27;;;;;;;16.20;10.88;;;2.90;99.90;;;;;;5084143;28;20049;-82
2024/01/06 11:26:56;;;;;;;13.85;10.40;;;2.90;99.90;;;;;;5068151;28;20406;-78
2024/01/06 11:29:22;;;;;;;13.73;10.40;;;2.90;99.90;;;;;;5081645;28;20493;-80
2024/01/06 11:32:20;;;;;;;18.58;11.43;;;2.90;99.90;;;;;;5081872;28;20040;-80
2024/01/06 11:34:50;;;;;;;16.70;10.15;;;2.90;99.90;;;;;;5072848;28;20055;-80
2024/01/06 11:37:18;;;;;;;14.40;8.55;;;2.90;99.90;;;;;;5073384;28;20044;-82
2024/01/06 11:39:44;;;;;;;11.45;8.50;;;2.90;99.90;;;;;;5072325;28;20056;-79
2024/01/06 11:42:11;;;;;;;11.93;8.63;;;3.00;99.90;;;;;;5071922;28;20048;-81
2024/01/06 11:44:38;;;;;;;11.95;8.63;;;2.90;99.90;;;;;;5073092;28;20057;-80
2024/01/06 11:47:04;;;;;;;10.93;7.80;;;3.00;99.90;;;;;;5072948;28;20055;-79
2024/01/06 11:49:31;;;;;;;10.50;7.72;;;2.90;99.90;;;;;;5072872;28;20053;-79
2024/01/06 11:51:57;;;;;;;11.05;7.68;;;2.90;99.90;;;;;;5072964;28;20121;-87
2024/01/06 11:54:23;;;;;;;10.93;7.60;;;2.90;99.90;;;;;;5071862;28;20044;-78
2024/01/06 11:56:49;;;;;;;15.37;10.67;;;3.00;99.90;;;;;;5072745;28;20049;-76
2024/01/06 11:59:15;;;;;;;16.17;10.93;;;3.00;99.90;;;;;;5109938;28;20532;-77
2024/01/06 12:01:41;;;;;;;11.87;8.80;;;3.00;99.90;;;;;;5112351;28;20060;-77
2024/01/06 12:04:07;;;;;;;10.75;7.80;;;3.00;99.90;;;;;;5113068;28;20044;-77
2024/01/06 12:06:35;;;;;;;10.23;7.22;;;3.00;99.90;;;;;;5113301;28;20501;-76
2024/01/06 12:09:10;;;;;;;11.88;8.57;;;3.10;99.90;;;;;;5113240;28;20504;-76
2024/01/06 12:11:37;;;;;;;11.70;7.38;;;3.00;99.90;;;;;;5113649;28;20043;-75
2024/01/06 12:14:03;;;;;;;10.65;8.25;;;3.00;99.90;;;;;;5117512;28;20063;-77
2024/01/06 12:16:28;;;;;;;10.97;7.80;;;3.00;99.90;;;;;;5117586;28;20043;-76
2024/01/06 12:18:56;;;;;;;11.43;8.77;;;3.00;99.90;;;;;;5117284;28;20051;-76
2024/01/06 12:21:25;;;;;;;10.43;7.97;;;3.00;99.90;;;;;;5117572;28;20050;-76
2024/01/06 12:23:51;;;;;;;11.40;8.13;;;3.10;99.90;;;;;;5117301;28;20122;-79
2024/01/06 12:26:17;;;;;;;11.43;8.50;;;3.10;99.90;;;;;;5116383;28;20173;-76
2024/01/06 12:28:48;;;;;;;11.43;8.57;;;3.00;99.90;;;;;;5116152;28;20093;-77
2024/01/06 12:31:14;;;;;;;10.65;7.40;;;3.10;99.90;;;;;;5100129;28;20052;-78
2024/01/06 12:33:40;;;;;;;11.15;8.45;;;3.10;99.90;;;;;;5085193;28;20097;-79
2024/01/06 12:36:11;;;;;;;10.77;8.35;;;3.10;99.90;;;;;;5076479;28;20048;-74